createdAt,value
2023-05-12T00:00:19.665Z,12.73
2023-05-12T00:02:47.324Z,12.75
2023-05-12T00:05:14.675Z,12.69
2023-05-12T00:07:42.116Z,12.70
2023-05-12T00:10:09.772Z,12.68
2023-05-12T00:12:37.368Z,12.66
2023-05-12T00:15:05.771Z,12.64
2023-05-12T00:17:33.001Z,12.62
2023-05-12T00:20:00.455Z,12.59
2023-05-12T00:22:27.798Z,12.55
2023-05-12T00:24:55.250Z,12.51
2023-05-12T00:27:22.563Z,12.48
2023-05-12T00:29:49.860Z,12.45
2023-05-12T00:32:17.216Z,12.46
2023-05-12T00:34:44.342Z,12.42
2023-05-12T00:37:11.510Z,12.43
2023-05-12T00:39:38.923Z,12.40
2023-05-12T00:42:06.688Z,12.37
2023-05-12T00:44:34.278Z,12.36
2023-05-12T00:47:01.587Z,12.33
2023-05-12T00:49:29.018Z,12.33
2023-05-12T00:51:59.101Z,12.26
2023-05-12T00:54:27.465Z,12.29
2023-05-12T00:56:55.331Z,12.25
2023-05-12T00:59:23.630Z,12.22
2023-05-12T01:01:51.001Z,12.22
2023-05-12T01:04:18.347Z,12.14
2023-05-12T01:06:55.038Z,12.17
2023-05-12T01:09:22.474Z,12.16
2023-05-12T01:11:49.977Z,12.15
2023-05-12T01:14:18.260Z,12.14
2023-05-12T01:16:56.773Z,12.12
2023-05-12T01:19:52.494Z,12.10
2023-05-12T01:22:21.681Z,12.03
2023-05-12T01:24:58.088Z,12.03
2023-05-12T01:27:27.765Z,12.01
2023-05-12T01:30:00.638Z,11.94
2023-05-12T01:32:30.698Z,11.91
2023-05-12T01:34:58.817Z,11.84
2023-05-12T01:37:27.130Z,11.84
2023-05-12T01:39:55.612Z,11.82
2023-05-12T01:42:22.794Z,11.73
2023-05-12T01:44:50.635Z,11.72
2023-05-12T01:47:18.059Z,11.70
2023-05-12T01:50:04.048Z,11.66
2023-05-12T01:52:31.580Z,11.62
2023-05-12T01:54:59.029Z,11.60
2023-05-12T01:57:31.178Z,11.57
2023-05-12T02:00:00.907Z,11.54
2023-05-12T02:02:30.457Z,11.53
2023-05-12T02:04:57.855Z,11.49
2023-05-12T02:07:25.090Z,11.45
2023-05-12T02:09:52.657Z,11.47
2023-05-12T02:12:20.168Z,11.45
2023-05-12T02:14:47.722Z,11.42
2023-05-12T02:17:15.264Z,11.41
2023-05-12T02:19:42.723Z,11.36
2023-05-12T02:22:12.899Z,11.32
2023-05-12T02:24:40.214Z,11.27
2023-05-12T02:27:07.622Z,11.18
2023-05-12T02:29:34.985Z,11.22
2023-05-12T02:32:02.556Z,11.19
2023-05-12T02:34:29.943Z,11.16
2023-05-12T02:36:57.279Z,11.13
2023-05-12T02:39:24.726Z,11.11
2023-05-12T02:41:51.994Z,11.13
2023-05-12T02:44:22.561Z,11.06
2023-05-12T02:46:50.570Z,11.02
2023-05-12T02:49:17.942Z,10.97
2023-05-12T02:51:46.582Z,10.99
2023-05-12T02:54:13.819Z,10.94
2023-05-12T02:56:41.069Z,10.94
2023-05-12T02:59:08.416Z,10.93
2023-05-12T03:01:35.893Z,10.89
2023-05-12T03:04:03.283Z,10.92
2023-05-12T03:06:30.961Z,10.88
2023-05-12T03:08:59.984Z,10.86
2023-05-12T03:11:27.312Z,10.85
2023-05-12T03:13:54.586Z,10.84
2023-05-12T03:16:22.350Z,10.80
2023-05-12T03:18:49.893Z,10.74
2023-05-12T03:21:17.414Z,10.79
2023-05-12T03:23:44.600Z,10.78
2023-05-12T03:26:11.788Z,10.75
2023-05-12T03:28:39.400Z,10.75
2023-05-12T03:31:06.885Z,10.71
2023-05-12T03:33:34.152Z,10.75
2023-05-12T03:36:01.415Z,10.76
2023-05-12T03:38:29.015Z,10.77
2023-05-12T03:41:08.888Z,10.79
2023-05-12T03:43:36.930Z,10.82
2023-05-12T03:46:04.480Z,10.84
2023-05-12T03:48:32.078Z,10.85
2023-05-12T03:50:59.388Z,10.84
2023-05-12T03:53:28.428Z,10.84
2023-05-12T03:55:56.846Z,10.85
2023-05-12T03:58:24.521Z,10.90
2023-05-12T04:00:51.920Z,10.93
2023-05-12T04:03:19.307Z,10.99
2023-05-12T04:05:46.751Z,10.97
2023-05-12T04:08:14.962Z,11.07
2023-05-12T04:10:42.726Z,11.17
2023-05-12T04:13:09.983Z,11.17
2023-05-12T04:15:37.549Z,11.24
2023-05-12T04:18:04.943Z,11.24
2023-05-12T04:20:32.337Z,11.30
2023-05-12T04:22:59.722Z,11.35
2023-05-12T04:25:27.109Z,11.38
2023-05-12T04:27:54.392Z,11.44
2023-05-12T04:30:22.695Z,11.54
2023-05-12T04:32:50.187Z,11.60
2023-05-12T04:35:17.667Z,11.61
2023-05-12T04:37:45.013Z,11.70
2023-05-12T04:40:12.533Z,11.74
2023-05-12T04:42:39.735Z,11.85
2023-05-12T04:45:09.898Z,11.83
2023-05-12T04:47:37.400Z,11.86
2023-05-12T04:50:06.064Z,11.94
2023-05-12T04:52:33.569Z,11.93
2023-05-12T04:55:00.895Z,11.96
2023-05-12T04:57:28.467Z,12.00
2023-05-12T04:59:56.776Z,12.04
2023-05-12T05:02:25.681Z,12.10
2023-05-12T05:04:53.127Z,12.14
2023-05-12T05:07:22.585Z,12.16
2023-05-12T05:09:49.969Z,12.15
2023-05-12T05:12:17.346Z,12.24
2023-05-12T05:14:44.987Z,12.29
2023-05-12T05:17:13.351Z,12.33
2023-05-12T05:19:55.233Z,12.37
2023-05-12T05:22:25.847Z,12.38
2023-05-12T05:24:53.255Z,12.44
2023-05-12T05:27:20.950Z,12.54
2023-05-12T05:29:49.554Z,12.60
2023-05-12T05:32:17.270Z,12.71
2023-05-12T05:34:45.157Z,12.73
2023-05-12T05:37:13.159Z,12.71
2023-05-12T05:39:40.621Z,12.76
2023-05-12T05:42:08.173Z,12.88
2023-05-12T05:44:36.371Z,12.88
2023-05-12T05:47:05.888Z,13.05
2023-05-12T05:49:33.404Z,13.16
2023-05-12T05:52:01.555Z,13.24
2023-05-12T05:54:29.080Z,13.35
2023-05-12T05:56:56.582Z,13.47
2023-05-12T05:59:24.662Z,13.61
2023-05-12T06:01:52.278Z,13.72
2023-05-12T06:04:19.778Z,13.78
2023-05-12T06:06:47.635Z,13.90
2023-05-12T06:09:15.967Z,14.09
2023-05-12T06:11:43.372Z,14.23
2023-05-12T06:14:11.676Z,14.36
2023-05-12T06:16:39.791Z,14.49
2023-05-12T06:19:08.613Z,14.65
2023-05-12T06:21:35.927Z,14.77
2023-05-12T06:24:03.967Z,14.93
2023-05-12T06:26:31.336Z,15.15
2023-05-12T06:28:58.713Z,15.30
2023-05-12T06:31:26.253Z,15.39
2023-05-12T06:33:53.544Z,15.50
2023-05-12T06:36:21.120Z,15.69
2023-05-12T06:38:48.522Z,15.89
2023-05-12T06:41:15.915Z,16.10
2023-05-12T06:43:43.618Z,16.22
2023-05-12T06:46:10.993Z,16.28
2023-05-12T06:48:38.942Z,16.33
2023-05-12T06:51:07.279Z,16.47
2023-05-12T06:53:38.031Z,16.57
2023-05-12T06:56:06.611Z,16.69
2023-05-12T06:58:35.219Z,16.88
2023-05-12T07:01:03.004Z,17.01
2023-05-12T07:03:33.476Z,17.06
2023-05-12T07:06:01.618Z,17.22
2023-05-12T07:08:29.756Z,17.35
2023-05-12T07:11:00.183Z,17.54
2023-05-12T07:13:28.578Z,17.76
2023-05-12T07:15:56.883Z,17.94
2023-05-12T07:18:25.147Z,18.05
2023-05-12T07:20:53.928Z,18.26
2023-05-12T07:23:22.077Z,18.38
2023-05-12T07:25:49.964Z,18.61
2023-05-12T07:28:17.669Z,18.73
2023-05-12T07:30:45.616Z,18.77
2023-05-12T07:33:13.711Z,18.79
2023-05-12T07:35:41.859Z,18.81
2023-05-12T07:38:10.079Z,18.91
2023-05-12T07:40:37.947Z,19.00
2023-05-12T07:43:05.786Z,19.06
2023-05-12T07:45:33.596Z,19.28
2023-05-12T07:48:01.555Z,19.37
2023-05-12T07:50:29.485Z,19.37
2023-05-12T07:52:57.489Z,19.35
2023-05-12T07:55:26.196Z,19.39
2023-05-12T07:57:54.479Z,19.47
2023-05-12T08:00:22.877Z,19.62
2023-05-12T08:02:50.975Z,19.77
2023-05-12T08:05:19.396Z,19.85
2023-05-12T08:07:47.762Z,19.93
2023-05-12T08:10:15.433Z,19.98
2023-05-12T08:12:44.263Z,20.08
2023-05-12T08:15:12.950Z,20.25
2023-05-12T08:17:40.700Z,20.43
2023-05-12T08:20:09.711Z,20.58
2023-05-12T08:22:37.623Z,20.61
2023-05-12T08:25:06.476Z,20.60
2023-05-12T08:27:34.766Z,20.55
2023-05-12T08:30:02.889Z,20.47
2023-05-12T08:32:30.929Z,20.54
2023-05-12T08:34:59.122Z,20.69
2023-05-12T08:37:27.826Z,20.58
2023-05-12T08:39:56.187Z,20.65
2023-05-12T08:42:43.622Z,20.71
2023-05-12T08:45:12.614Z,20.68
2023-05-12T08:47:44.032Z,20.67
2023-05-12T08:50:14.717Z,20.80
2023-05-12T08:52:42.565Z,21.00
2023-05-12T08:55:11.436Z,21.15
2023-05-12T08:57:43.208Z,21.08
2023-05-12T09:00:12.564Z,21.02
2023-05-12T09:02:52.993Z,21.11
2023-05-12T09:05:23.869Z,21.13
2023-05-12T09:07:55.304Z,21.20
2023-05-12T09:13:01.676Z,21.15
2023-05-12T09:15:42.539Z,21.21
2023-05-12T09:18:10.638Z,21.31
2023-05-12T09:20:38.894Z,21.41
2023-05-12T09:23:18.329Z,21.47
2023-05-12T09:25:47.334Z,21.44
2023-05-12T09:28:15.728Z,21.48
2023-05-12T09:30:43.737Z,21.57
2023-05-12T09:33:13.318Z,21.58
2023-05-12T09:35:46.999Z,21.66
2023-05-12T09:38:15.667Z,21.81
2023-05-12T09:40:43.980Z,21.92
2023-05-12T09:43:15.084Z,22.05
2023-05-12T09:45:44.661Z,22.07
2023-05-12T09:48:14.558Z,22.22
2023-05-12T09:50:51.790Z,22.31
2023-05-12T09:53:23.371Z,22.40
2023-05-12T09:55:51.793Z,22.36
2023-05-12T09:58:21.157Z,22.36
2023-05-12T10:01:12.898Z,22.38
2023-05-12T10:03:38.910Z,22.32
2023-05-12T10:06:09.138Z,22.36
2023-05-12T10:08:44.354Z,22.38
2023-05-12T10:11:12.762Z,22.44
2023-05-12T10:13:42.214Z,22.47
2023-05-12T10:16:11.024Z,22.37
2023-05-12T10:18:40.872Z,22.31
2023-05-12T10:21:12.313Z,22.32
2023-05-12T10:23:44.993Z,22.34
2023-05-12T10:26:14.000Z,22.44
2023-05-12T10:28:43.316Z,22.56
2023-05-12T10:31:12.544Z,22.52
2023-05-12T10:33:40.424Z,22.53
2023-05-12T10:36:20.638Z,22.56
2023-05-12T10:38:52.253Z,22.67
2023-05-12T10:41:34.785Z,22.62
2023-05-12T10:44:03.107Z,22.62
2023-05-12T10:46:31.531Z,22.71
2023-05-12T10:49:06.999Z,22.73
2023-05-12T10:51:45.344Z,22.67
2023-05-12T10:54:20.352Z,22.59
2023-05-12T10:56:49.570Z,22.59
2023-05-12T10:59:22.452Z,22.45
2023-05-12T11:02:14.123Z,22.40
2023-05-12T11:04:50.577Z,22.44
2023-05-12T11:07:24.259Z,22.59
2023-05-12T11:09:58.549Z,22.61
2023-05-12T11:12:33.155Z,22.59
2023-05-12T11:15:05.752Z,22.45
2023-05-12T11:17:33.688Z,22.47
2023-05-12T11:20:01.972Z,22.54
2023-05-12T11:22:30.338Z,22.60
2023-05-12T11:24:58.387Z,22.52
2023-05-12T11:27:26.354Z,22.36
2023-05-12T11:30:03.184Z,22.19
2023-05-12T11:32:31.443Z,22.27
2023-05-12T11:35:10.073Z,22.44
2023-05-12T11:37:40.391Z,22.62
2023-05-12T11:40:19.362Z,22.64
2023-05-12T11:42:56.795Z,22.55
2023-05-12T11:45:27.453Z,22.45
2023-05-12T11:48:08.010Z,22.52
2023-05-12T11:50:39.972Z,22.53
2023-05-12T11:53:16.175Z,22.54
2023-05-12T11:55:55.329Z,22.48
2023-05-12T11:58:27.114Z,22.46
2023-05-12T12:00:55.557Z,22.41
2023-05-12T12:03:24.702Z,22.39
2023-05-12T12:06:01.912Z,22.30
2023-05-12T12:08:30.323Z,22.26
2023-05-12T12:10:59.642Z,22.24
2023-05-12T12:13:29.306Z,22.30
2023-05-12T12:15:57.433Z,22.40
2023-05-12T12:18:25.586Z,22.43
2023-05-12T12:20:53.369Z,22.45
2023-05-12T12:23:21.567Z,22.40
2023-05-12T12:25:49.461Z,22.40
2023-05-12T12:28:17.600Z,22.36
2023-05-12T12:30:45.929Z,22.17
2023-05-12T12:33:13.762Z,22.08
2023-05-12T12:35:42.086Z,21.92
2023-05-12T12:38:10.059Z,21.93
2023-05-12T12:40:37.889Z,21.89
2023-05-12T12:43:05.751Z,21.89
2023-05-12T12:45:33.712Z,21.88
2023-05-12T12:48:01.689Z,21.90
2023-05-12T12:50:30.935Z,21.89
2023-05-12T12:52:58.666Z,21.86
2023-05-12T12:55:26.868Z,21.75
2023-05-12T12:57:54.592Z,21.77
2023-05-12T13:00:23.950Z,21.80
2023-05-12T13:02:52.527Z,21.85
2023-05-12T13:05:21.298Z,21.91
2023-05-12T13:07:50.534Z,21.90
2023-05-12T13:10:18.962Z,21.89
2023-05-12T13:12:47.148Z,21.82
2023-05-12T13:15:16.013Z,21.86
2023-05-12T13:17:48.460Z,21.87
2023-05-12T13:20:16.759Z,21.74
2023-05-12T13:22:46.618Z,21.69
2023-05-12T13:25:14.672Z,21.66
2023-05-12T13:27:43.049Z,21.62
2023-05-12T13:30:13.481Z,21.64
2023-05-12T13:32:42.153Z,21.67
2023-05-12T13:35:10.637Z,21.71
2023-05-12T13:37:38.777Z,21.74
2023-05-12T13:40:07.742Z,21.64
2023-05-12T13:42:35.676Z,21.54
2023-05-12T13:45:04.352Z,21.49
2023-05-12T13:47:32.411Z,21.50
2023-05-12T13:50:00.544Z,21.48
2023-05-12T13:52:28.752Z,21.50
2023-05-12T13:54:56.771Z,21.47
2023-05-12T13:57:24.735Z,21.42
2023-05-12T13:59:52.640Z,21.34
2023-05-12T14:02:20.716Z,21.29
2023-05-12T14:04:49.440Z,21.29
2023-05-12T14:07:19.662Z,21.30
2023-05-12T14:09:47.604Z,21.28
2023-05-12T14:12:16.610Z,21.25
2023-05-12T14:14:49.955Z,21.25
2023-05-12T14:17:19.081Z,21.20
2023-05-12T14:19:47.149Z,21.20
2023-05-12T14:22:25.409Z,21.13
2023-05-12T14:24:56.079Z,21.07
2023-05-12T14:27:24.336Z,21.11
2023-05-12T14:29:52.446Z,21.03
2023-05-12T14:32:20.642Z,20.99
2023-05-12T14:34:48.662Z,20.98
2023-05-12T14:37:18.544Z,20.95
2023-05-12T14:39:46.618Z,20.98
2023-05-12T14:42:14.980Z,20.99
2023-05-12T14:44:42.746Z,20.97
2023-05-12T14:47:10.357Z,20.91
2023-05-12T14:49:38.587Z,20.81
2023-05-12T14:52:06.996Z,20.84
2023-05-12T14:54:35.209Z,20.78
2023-05-12T14:57:04.627Z,20.74
2023-05-12T14:59:33.209Z,20.68
2023-05-12T15:02:01.181Z,20.68
2023-05-12T15:04:29.630Z,20.69
2023-05-12T15:06:57.711Z,20.66
2023-05-12T15:09:25.307Z,20.58
2023-05-12T15:11:53.604Z,20.54
2023-05-12T15:14:21.371Z,20.51
2023-05-12T15:16:49.458Z,20.51
2023-05-12T15:19:17.886Z,20.50
2023-05-12T15:21:45.732Z,20.45
2023-05-12T15:24:15.919Z,20.42
2023-05-12T15:26:43.888Z,20.43
2023-05-12T15:29:11.661Z,20.46
2023-05-12T15:31:39.756Z,20.40
2023-05-12T15:34:07.808Z,20.42
2023-05-12T15:36:35.919Z,20.39
2023-05-12T15:39:03.993Z,20.37
2023-05-12T15:41:32.068Z,20.36
2023-05-12T15:43:59.958Z,20.29
2023-05-12T15:46:27.931Z,20.26
2023-05-12T15:48:56.158Z,20.24
2023-05-12T15:51:28.878Z,20.22
2023-05-12T15:53:56.761Z,20.18
2023-05-12T15:56:24.790Z,20.14
2023-05-12T15:58:53.231Z,20.14
2023-05-12T16:01:21.678Z,20.13
2023-05-12T16:03:54.153Z,20.09
2023-05-12T16:06:22.396Z,20.03
2023-05-12T16:08:51.197Z,20.03
2023-05-12T16:11:19.257Z,19.98
2023-05-12T16:13:47.676Z,19.95
2023-05-12T16:16:16.331Z,19.89
2023-05-12T16:18:44.426Z,19.87
2023-05-12T16:21:13.105Z,19.83
2023-05-12T16:23:41.125Z,19.82
2023-05-12T16:26:09.566Z,19.80
2023-05-12T16:28:37.404Z,19.77
2023-05-12T16:31:05.396Z,19.75
2023-05-12T16:33:33.166Z,19.75
2023-05-12T16:36:01.381Z,19.71
2023-05-12T16:38:30.407Z,19.71
2023-05-12T16:40:58.096Z,19.68
2023-05-12T16:43:26.551Z,19.67
2023-05-12T16:46:04.783Z,19.66
2023-05-12T16:48:36.734Z,19.55
2023-05-12T16:51:09.560Z,19.53
2023-05-12T16:53:39.054Z,19.47
2023-05-12T16:56:07.535Z,19.42
2023-05-12T16:58:35.496Z,19.37
2023-05-12T17:01:04.005Z,19.35
2023-05-12T17:03:32.199Z,19.30
2023-05-12T17:06:00.263Z,19.30
2023-05-12T17:08:28.308Z,19.25
2023-05-12T17:10:56.473Z,19.21
2023-05-12T17:13:24.445Z,19.18
2023-05-12T17:15:52.736Z,19.09
2023-05-12T17:18:21.162Z,19.09
2023-05-12T17:20:49.009Z,19.04
2023-05-12T17:23:16.984Z,18.99
2023-05-12T17:25:44.898Z,18.96
2023-05-12T17:28:13.174Z,18.93
2023-05-12T17:30:42.079Z,18.85
2023-05-12T17:33:10.288Z,18.83
2023-05-12T17:35:38.255Z,18.77
2023-05-12T17:38:06.349Z,18.72
2023-05-12T17:40:34.529Z,18.68
2023-05-12T17:43:02.854Z,18.61
2023-05-12T17:45:30.593Z,18.57
2023-05-12T17:47:58.919Z,18.55
2023-05-12T17:50:27.322Z,18.50
2023-05-12T17:52:56.225Z,18.45
2023-05-12T17:55:24.324Z,18.42
2023-05-12T17:57:52.982Z,18.35
2023-05-12T18:00:21.432Z,18.29
2023-05-12T18:02:49.588Z,18.22
2023-05-12T18:05:17.736Z,18.21
2023-05-12T18:07:45.611Z,18.15
2023-05-12T18:10:13.465Z,18.08
2023-05-12T18:12:41.398Z,18.02
2023-05-12T18:15:09.998Z,17.95
2023-05-12T18:17:38.193Z,17.88
2023-05-12T18:20:07.612Z,17.77
2023-05-12T18:22:35.562Z,17.73
2023-05-12T18:25:03.841Z,17.67
2023-05-12T18:27:32.178Z,17.60
2023-05-12T18:30:00.071Z,17.53
2023-05-12T18:32:28.541Z,17.47
2023-05-12T18:34:56.808Z,17.45
2023-05-12T18:37:25.356Z,17.38
2023-05-12T18:39:55.065Z,17.33
2023-05-12T18:42:23.065Z,17.26
2023-05-12T18:44:52.036Z,17.21
2023-05-12T18:47:20.244Z,17.14
2023-05-12T18:49:48.406Z,17.13
2023-05-12T18:52:16.505Z,17.05
2023-05-12T18:54:48.144Z,16.98
2023-05-12T18:57:17.838Z,16.92
2023-05-12T18:59:46.027Z,16.87
2023-05-12T19:02:14.226Z,16.81
2023-05-12T19:04:42.559Z,16.77
2023-05-12T19:07:10.749Z,16.72
2023-05-12T19:09:38.491Z,16.67
2023-05-12T19:12:11.302Z,16.62
2023-05-12T19:14:43.657Z,16.53
2023-05-12T19:17:12.136Z,16.46
2023-05-12T19:19:40.437Z,16.43
2023-05-12T19:22:08.672Z,16.37
2023-05-12T19:24:38.465Z,16.31
2023-05-12T19:27:06.567Z,16.25
2023-05-12T19:29:34.592Z,16.21
2023-05-12T19:32:02.901Z,16.12
2023-05-12T19:34:32.137Z,16.15
2023-05-12T19:37:03.249Z,16.10
2023-05-12T19:39:31.352Z,16.06
2023-05-12T19:41:59.556Z,16.04
2023-05-12T19:44:29.421Z,16.00
2023-05-12T19:47:04.954Z,15.94
2023-05-12T19:49:34.945Z,15.88
2023-05-12T19:52:03.962Z,15.82
2023-05-12T19:54:32.638Z,15.79
2023-05-12T19:57:00.718Z,15.77
2023-05-12T19:59:28.441Z,15.75
2023-05-12T20:01:56.999Z,15.70
2023-05-12T20:04:26.099Z,15.66
2023-05-12T20:06:55.090Z,15.63
2023-05-12T20:09:25.208Z,15.58
2023-05-12T20:11:53.380Z,15.59
2023-05-12T20:14:21.624Z,15.54
2023-05-12T20:16:49.735Z,15.47
2023-05-12T20:19:18.110Z,15.47
2023-05-12T20:21:46.200Z,15.44
2023-05-12T20:24:14.037Z,15.40
2023-05-12T20:26:42.009Z,15.34
2023-05-12T20:29:10.196Z,15.29
2023-05-12T20:31:38.126Z,15.26
2023-05-12T20:34:06.834Z,15.23
2023-05-12T20:36:34.609Z,15.20
2023-05-12T20:39:02.599Z,15.17
2023-05-12T20:41:30.326Z,15.16
2023-05-12T20:43:58.045Z,15.11
2023-05-12T20:46:26.716Z,15.13
2023-05-12T20:48:55.496Z,15.11
2023-05-12T20:51:23.847Z,15.07
2023-05-12T20:53:51.916Z,15.04
2023-05-12T20:56:23.096Z,15.03
2023-05-12T20:58:51.346Z,15.02
2023-05-12T21:01:19.489Z,14.98
2023-05-12T21:03:47.392Z,14.93
2023-05-12T21:06:15.627Z,14.94
2023-05-12T21:08:43.510Z,14.92
2023-05-12T21:11:16.374Z,14.90
2023-05-12T21:13:45.393Z,14.89
2023-05-12T21:16:14.200Z,14.87
2023-05-12T22:05:04.293Z,14.24
2023-05-12T22:20:27.765Z,14.14
2023-05-12T22:23:53.095Z,14.15
2023-05-12T22:35:31.762Z,14.04
2023-05-12T22:52:27.072Z,13.93
2023-05-12T22:59:17.383Z,13.88
2023-05-12T23:05:50.828Z,13.82
2023-05-12T23:12:36.224Z,13.73
2023-05-12T23:15:19.105Z,13.70
2023-05-12T23:18:17.252Z,13.65
2023-05-12T23:21:31.978Z,13.62
2023-05-12T23:24:52.586Z,13.61
2023-05-12T23:31:52.955Z,13.51
2023-05-12T23:38:25.286Z,13.44
2023-05-12T23:45:19.370Z,13.38
2023-05-12T23:51:26.201Z,13.28
2023-05-12T23:54:20.755Z,13.30
